createdAt,value
2023-05-03T00:01:14.198Z,0.17
2023-05-03T00:03:40.573Z,0.20
2023-05-03T00:06:11.608Z,0.40
2023-05-03T00:08:38.130Z,0.20
2023-05-03T00:11:04.625Z,0.20
2023-05-03T00:13:31.053Z,0.20
2023-05-03T00:15:57.383Z,0.25
2023-05-03T00:18:23.962Z,0.30
2023-05-03T00:20:51.164Z,0.30
2023-05-03T00:23:17.517Z,0.77
2023-05-03T00:25:44.619Z,0.30
2023-05-03T00:28:11.059Z,0.20
2023-05-03T00:30:37.402Z,0.30
2023-05-03T00:33:03.812Z,0.30
2023-05-03T00:35:30.254Z,0.20
2023-05-03T00:37:56.635Z,0.30
2023-05-03T00:40:22.951Z,0.40
2023-05-03T00:42:49.310Z,0.40
2023-05-03T00:45:15.842Z,0.60
2023-05-03T00:47:43.339Z,0.53
2023-05-03T00:50:11.850Z,0.20
2023-05-03T00:52:39.378Z,0.20
2023-05-03T00:55:07.449Z,0.30
2023-05-03T00:57:33.761Z,0.32
2023-05-03T01:00:00.560Z,0.30
2023-05-03T01:02:30.659Z,0.40
2023-05-03T01:04:57.185Z,0.30
2023-05-03T01:07:35.763Z,0.30
2023-05-03T01:10:12.231Z,0.20
2023-05-03T01:12:53.648Z,0.30
2023-05-03T01:15:53.988Z,0.55
2023-05-03T01:18:23.922Z,0.40
2023-05-03T01:20:52.950Z,0.22
2023-05-03T01:23:22.248Z,0.57
2023-05-03T01:25:51.754Z,0.30
2023-05-03T01:28:18.111Z,0.40
2023-05-03T01:30:46.022Z,0.20
2023-05-03T01:33:31.544Z,0.20
2023-05-03T01:36:06.853Z,0.20
2023-05-03T01:38:37.115Z,0.37
2023-05-03T01:41:12.203Z,0.43
2023-05-03T01:43:40.688Z,0.20
2023-05-03T01:46:07.395Z,0.40
2023-05-03T01:48:33.951Z,0.30
2023-05-03T01:51:00.323Z,0.73
2023-05-03T01:53:26.652Z,0.32
2023-05-03T01:55:52.972Z,0.40
2023-05-03T01:58:19.314Z,0.30
2023-05-03T02:00:46.512Z,0.40
2023-05-03T02:03:13.034Z,0.20
2023-05-03T02:05:39.527Z,0.40
2023-05-03T02:08:05.982Z,0.30
2023-05-03T02:10:32.363Z,0.20
2023-05-03T02:12:59.272Z,0.40
2023-05-03T02:15:25.705Z,0.40
2023-05-03T02:17:54.170Z,0.20
2023-05-03T02:20:20.914Z,0.40
2023-05-03T02:22:47.326Z,0.30
2023-05-03T02:25:13.645Z,0.20
2023-05-03T02:27:40.477Z,0.30
2023-05-03T02:30:08.016Z,0.40
2023-05-03T02:32:34.448Z,0.30
2023-05-03T02:35:00.867Z,0.20
2023-05-03T02:37:27.279Z,0.25
2023-05-03T02:39:53.717Z,0.20
2023-05-03T02:42:20.152Z,0.20
2023-05-03T02:44:46.635Z,0.40
2023-05-03T02:47:13.041Z,0.65
2023-05-03T02:49:39.458Z,0.90
2023-05-03T02:52:05.857Z,0.20
2023-05-03T02:54:32.259Z,0.40
2023-05-03T02:56:58.621Z,0.35
2023-05-03T02:59:25.024Z,0.50
2023-05-03T03:01:51.364Z,0.20
2023-05-03T03:04:17.878Z,0.40
2023-05-03T03:06:44.299Z,0.85
2023-05-03T03:09:12.508Z,0.40
2023-05-03T03:11:38.892Z,0.30
2023-05-03T03:14:05.462Z,0.50
2023-05-03T03:16:31.960Z,0.33
2023-05-03T03:18:58.398Z,0.40
2023-05-03T03:21:24.798Z,0.28
2023-05-03T03:23:51.466Z,0.30
2023-05-03T03:26:18.694Z,0.30
2023-05-03T03:28:45.066Z,0.30
2023-05-03T03:31:11.610Z,0.20
2023-05-03T03:33:37.949Z,0.20
2023-05-03T03:36:07.713Z,0.50
2023-05-03T03:38:34.073Z,0.45
2023-05-03T03:41:00.580Z,0.30
2023-05-03T03:43:27.005Z,0.30
2023-05-03T03:45:54.031Z,0.40
2023-05-03T03:48:20.649Z,0.40
2023-05-03T03:50:47.494Z,0.80
2023-05-03T03:53:13.911Z,0.77
2023-05-03T03:55:40.354Z,0.40
2023-05-03T03:58:06.691Z,0.30
2023-05-03T04:00:34.655Z,0.40
2023-05-03T04:03:01.111Z,0.95
2023-05-03T04:05:27.617Z,0.20
2023-05-03T04:07:53.936Z,0.57
2023-05-03T04:10:20.265Z,0.52
2023-05-03T04:12:46.620Z,0.40
2023-05-03T04:15:13.053Z,0.30
2023-05-03T04:17:39.635Z,0.30
2023-05-03T04:20:10.811Z,0.60
2023-05-03T04:22:41.429Z,0.50
2023-05-03T04:25:10.958Z,0.30
2023-05-03T04:27:38.230Z,0.50
2023-05-03T04:30:06.370Z,0.50
2023-05-03T04:32:37.098Z,0.52
2023-05-03T04:35:09.283Z,0.60
2023-05-03T04:37:39.480Z,0.50
2023-05-03T04:40:08.638Z,0.32
2023-05-03T04:42:36.146Z,0.50
2023-05-03T04:45:03.776Z,0.43
2023-05-03T04:47:30.708Z,0.60
2023-05-03T04:49:57.125Z,0.70
2023-05-03T04:52:23.490Z,0.50
2023-05-03T04:54:49.870Z,0.40
2023-05-03T04:57:16.461Z,0.60
2023-05-03T04:59:42.861Z,0.32
2023-05-03T05:02:10.580Z,0.30
2023-05-03T05:04:37.012Z,0.50
2023-05-03T05:07:03.367Z,0.70
2023-05-03T05:09:31.209Z,0.65
2023-05-03T05:11:58.115Z,0.30
2023-05-03T05:14:27.160Z,0.30
2023-05-03T05:16:53.603Z,0.43
2023-05-03T05:19:19.970Z,0.23
2023-05-03T05:21:46.371Z,0.43
2023-05-03T05:24:13.020Z,0.50
2023-05-03T05:26:39.737Z,0.55
2023-05-03T05:29:06.347Z,0.80
2023-05-03T05:31:32.880Z,0.50
2023-05-03T05:33:59.320Z,0.40
2023-05-03T05:36:25.930Z,0.40
2023-05-03T05:38:52.335Z,0.80
2023-05-03T05:41:18.846Z,0.20
2023-05-03T05:43:45.612Z,0.40
2023-05-03T05:46:12.045Z,0.30
2023-05-03T05:48:39.214Z,0.73
2023-05-03T05:51:06.049Z,0.10
2023-05-03T05:53:32.401Z,0.30
2023-05-03T05:55:58.878Z,0.10
2023-05-03T05:58:25.286Z,0.20
2023-05-03T06:00:51.970Z,0.20
2023-05-03T06:03:18.384Z,0.20
2023-05-03T06:05:44.829Z,0.30
2023-05-03T06:08:12.712Z,0.33
2023-05-03T06:10:39.961Z,0.30
2023-05-03T06:13:06.291Z,0.40
2023-05-03T06:15:32.663Z,0.40
2023-05-03T06:17:59.037Z,0.40
2023-05-03T06:20:26.203Z,0.10
2023-05-03T06:22:52.658Z,0.25
2023-05-03T06:25:19.098Z,0.22
2023-05-03T06:27:45.645Z,0.20
2023-05-03T06:30:12.720Z,0.20
2023-05-03T06:32:40.527Z,0.20
2023-05-03T06:35:07.671Z,0.30
2023-05-03T06:37:34.062Z,0.45
2023-05-03T06:40:00.503Z,0.20
2023-05-03T06:42:27.661Z,0.30
2023-05-03T06:44:54.021Z,0.40
2023-05-03T06:47:21.503Z,0.38
2023-05-03T06:49:48.281Z,0.40
2023-05-03T06:52:14.912Z,0.30
2023-05-03T06:54:41.336Z,0.22
2023-05-03T06:57:07.751Z,0.30
2023-05-03T06:59:34.199Z,0.20
2023-05-03T07:02:00.764Z,0.20
2023-05-03T07:04:27.247Z,0.13
2023-05-03T07:06:56.810Z,0.35
2023-05-03T07:09:35.310Z,0.30
2023-05-03T07:12:09.198Z,0.20
2023-05-03T07:14:35.564Z,0.10
2023-05-03T07:17:01.966Z,0.10
2023-05-03T07:19:28.719Z,0.22
2023-05-03T07:21:55.224Z,0.20
2023-05-03T07:24:21.653Z,0.10
2023-05-03T07:26:49.182Z,0.10
2023-05-03T07:29:15.693Z,0.35
2023-05-03T07:31:42.235Z,0.20
2023-05-03T07:34:08.579Z,0.30
2023-05-03T07:36:34.949Z,0.10
2023-05-03T07:39:01.337Z,0.40
2023-05-03T07:41:28.024Z,0.10
2023-05-03T07:43:54.984Z,0.10
2023-05-03T07:46:21.674Z,0.30
2023-05-03T07:48:48.204Z,0.10
2023-05-03T07:51:14.722Z,0.20
2023-05-03T07:53:41.272Z,0.20
2023-05-03T07:56:07.735Z,0.17
2023-05-03T07:58:40.156Z,0.10
2023-05-03T08:01:07.398Z,0.15
2023-05-03T08:03:33.988Z,0.13
2023-05-03T08:06:00.765Z,0.10
2023-05-03T08:08:27.733Z,0.10
2023-05-03T08:10:54.157Z,0.30
2023-05-03T08:13:22.464Z,0.30
2023-05-03T08:15:50.182Z,0.30
2023-05-03T08:18:16.825Z,0.20
2023-05-03T08:20:44.059Z,0.30
2023-05-03T08:23:11.183Z,0.50
2023-05-03T08:25:37.727Z,0.20
2023-05-03T08:28:04.484Z,0.20
2023-05-03T08:30:31.289Z,0.63
2023-05-03T08:32:57.808Z,0.13
2023-05-03T08:35:24.242Z,0.20
2023-05-03T08:37:50.790Z,0.20
2023-05-03T08:40:17.752Z,0.20
2023-05-03T08:42:45.796Z,0.20
2023-05-03T08:45:15.770Z,0.13
2023-05-03T08:47:44.924Z,0.30
2023-05-03T08:50:13.915Z,0.30
2023-05-03T08:52:42.423Z,0.40
2023-05-03T08:55:10.108Z,0.30
2023-05-03T08:57:36.867Z,0.30
2023-05-03T09:00:06.423Z,0.23
2023-05-03T09:02:38.969Z,0.50
2023-05-03T09:05:15.580Z,0.30
2023-05-03T09:08:04.700Z,0.20
2023-05-03T09:10:32.160Z,0.32
2023-05-03T09:13:02.653Z,0.20
2023-05-03T09:15:30.529Z,0.30
2023-05-03T09:18:10.588Z,0.22
2023-05-03T09:20:39.566Z,0.17
2023-05-03T09:23:09.762Z,0.30
2023-05-03T09:25:51.457Z,0.30
2023-05-03T09:28:19.944Z,0.25
2023-05-03T09:30:48.200Z,0.20
2023-05-03T09:33:22.354Z,0.20
2023-05-03T09:36:00.802Z,0.30
2023-05-03T09:38:29.634Z,0.20
2023-05-03T09:40:56.628Z,0.35
2023-05-03T09:43:23.045Z,0.85
2023-05-03T09:45:49.653Z,0.28
2023-05-03T09:48:16.899Z,0.30
2023-05-03T09:50:43.840Z,0.40
2023-05-03T09:53:10.321Z,0.25
2023-05-03T09:55:40.523Z,0.20
2023-05-03T09:58:08.002Z,0.20
2023-05-03T10:00:36.153Z,0.20
2023-05-03T10:03:08.280Z,0.30
2023-05-03T10:05:43.001Z,0.50
2023-05-03T10:08:12.414Z,0.30
2023-05-03T10:10:44.046Z,0.22
2023-05-03T10:13:12.538Z,0.30
2023-05-03T10:15:42.821Z,0.37
2023-05-03T10:18:13.349Z,0.70
2023-05-03T10:20:54.719Z,0.20
2023-05-03T10:23:21.078Z,0.30
2023-05-03T10:26:05.815Z,0.40
2023-05-03T10:28:33.508Z,0.40
2023-05-03T10:30:59.930Z,0.30
2023-05-03T10:33:35.046Z,0.40
2023-05-03T10:36:06.980Z,0.38
2023-05-03T10:38:33.516Z,0.60
2023-05-03T10:41:03.500Z,0.37
2023-05-03T10:43:30.229Z,0.30
2023-05-03T10:45:57.374Z,0.35
2023-05-03T10:48:24.135Z,0.30
2023-05-03T10:50:51.595Z,0.35
2023-05-03T10:53:44.855Z,0.43
2023-05-03T10:56:15.280Z,0.40
2023-05-03T10:58:50.562Z,0.50
2023-05-03T11:01:19.177Z,0.50
2023-05-03T11:03:51.602Z,0.40
2023-05-03T11:06:32.513Z,0.30
2023-05-03T11:08:59.433Z,0.52
2023-05-03T11:11:26.123Z,0.40
2023-05-03T11:13:53.507Z,0.55
2023-05-03T11:16:20.626Z,0.30
2023-05-03T11:18:48.705Z,0.30
2023-05-03T11:21:18.601Z,0.80
2023-05-03T11:23:45.656Z,0.20
2023-05-03T11:26:12.070Z,0.70
2023-05-03T11:28:39.450Z,0.40
2023-05-03T11:31:06.605Z,0.80
2023-05-03T11:33:35.153Z,0.50
2023-05-03T11:36:03.537Z,0.30
2023-05-03T11:38:33.919Z,0.30
2023-05-03T11:41:01.652Z,0.63
2023-05-03T11:43:28.959Z,0.43
2023-05-03T11:45:58.833Z,0.40
2023-05-03T11:48:27.563Z,0.25
2023-05-03T11:50:55.681Z,0.40
2023-05-03T11:53:26.314Z,0.50
2023-05-03T11:55:54.029Z,0.40
2023-05-03T11:58:26.372Z,0.50
2023-05-03T12:00:57.183Z,0.95
2023-05-03T12:03:31.869Z,0.70
2023-05-03T12:06:00.688Z,0.40
2023-05-03T12:08:31.496Z,0.60
2023-05-03T12:11:02.751Z,0.43
2023-05-03T12:13:39.618Z,0.40
2023-05-03T12:16:14.114Z,0.65
2023-05-03T12:19:02.722Z,0.50
2023-05-03T12:21:59.214Z,0.47
2023-05-03T12:24:34.749Z,0.70
2023-05-03T12:27:02.902Z,0.70
2023-05-03T12:29:34.770Z,0.60
2023-05-03T12:32:03.214Z,0.60
2023-05-03T12:34:34.667Z,0.50
2023-05-03T12:37:04.711Z,0.98
2023-05-03T12:39:32.905Z,0.85
2023-05-03T12:44:29.252Z,0.47
2023-05-03T12:46:56.358Z,0.67
2023-05-03T12:49:24.361Z,0.68
2023-05-03T12:52:04.753Z,1.00
2023-05-03T12:54:41.526Z,0.88
2023-05-03T12:57:14.698Z,0.52
2023-05-03T12:59:43.233Z,0.57
2023-05-03T13:07:13.988Z,0.73
2023-05-03T13:12:27.903Z,0.50
2023-05-03T13:14:54.994Z,0.40
2023-05-03T13:17:22.511Z,0.50
2023-05-03T13:19:50.822Z,0.70
2023-05-03T13:22:17.399Z,0.60
2023-05-03T13:24:45.817Z,0.53
2023-05-03T13:27:12.731Z,0.52
2023-05-03T13:29:40.025Z,0.60
2023-05-03T13:32:06.939Z,0.50
2023-05-03T13:34:34.097Z,0.93
2023-05-03T13:37:01.813Z,0.47
2023-05-03T13:39:28.272Z,0.82
2023-05-03T13:41:54.632Z,0.80
2023-05-03T13:44:25.092Z,0.88
2023-05-03T13:46:52.439Z,0.80
2023-05-03T13:49:18.853Z,0.80
2023-05-03T13:51:45.352Z,0.85
2023-05-03T13:54:11.921Z,0.43
2023-05-03T13:56:38.405Z,0.40
2023-05-03T13:59:07.791Z,0.60
2023-05-03T14:01:34.247Z,0.57
2023-05-03T14:04:00.894Z,0.68
2023-05-03T14:06:27.579Z,0.60
2023-05-03T14:08:54.749Z,0.60
2023-05-03T14:11:24.563Z,0.50
2023-05-03T14:13:57.076Z,0.60
2023-05-03T14:18:55.756Z,0.80
2023-05-03T14:21:22.210Z,0.60
2023-05-03T14:23:52.074Z,1.10
2023-05-03T14:26:20.110Z,0.50
2023-05-03T14:28:47.126Z,0.75
2023-05-03T14:31:13.746Z,0.98
2023-05-03T14:33:40.170Z,0.30
2023-05-03T14:36:08.453Z,0.90
2023-05-03T14:38:35.729Z,0.60
2023-05-03T14:41:02.168Z,0.30
2023-05-03T14:43:28.682Z,0.63
2023-05-03T14:45:55.259Z,0.68
2023-05-03T14:48:21.809Z,0.60
2023-05-03T14:50:51.665Z,0.57
2023-05-03T14:53:18.479Z,0.32
2023-05-03T14:55:45.723Z,0.50
2023-05-03T14:58:15.705Z,0.47
2023-05-03T15:00:42.723Z,0.63
2023-05-03T15:03:13.052Z,1.00
2023-05-03T15:05:46.715Z,0.60
2023-05-03T15:08:15.153Z,0.90
2023-05-03T15:10:44.317Z,0.60
2023-05-03T15:13:11.905Z,0.50
2023-05-03T15:15:39.379Z,0.83
2023-05-03T15:18:06.878Z,0.60
2023-05-03T15:20:33.436Z,0.85
2023-05-03T15:22:59.898Z,0.55
2023-05-03T15:25:26.983Z,0.60
2023-05-03T15:27:53.381Z,1.00
2023-05-03T15:30:20.035Z,1.00
2023-05-03T15:32:46.598Z,0.50
2023-05-03T15:35:13.091Z,0.45
2023-05-03T15:37:39.520Z,0.52
2023-05-03T15:40:09.263Z,0.70
2023-05-03T15:42:36.483Z,0.73
2023-05-03T15:45:03.987Z,0.90
2023-05-03T15:47:30.515Z,0.60
2023-05-03T15:49:59.947Z,1.27
2023-05-03T15:52:26.338Z,0.50
2023-05-03T15:54:54.288Z,1.15
2023-05-03T15:57:20.683Z,0.50
2023-05-03T15:59:47.253Z,0.80
2023-05-03T16:02:13.690Z,0.70
2023-05-03T16:04:40.149Z,0.30
2023-05-03T16:07:07.440Z,0.65
2023-05-03T16:09:33.823Z,1.00
2023-05-03T16:12:00.519Z,0.57
2023-05-03T16:14:26.908Z,0.98
2023-05-03T16:16:54.369Z,1.17
2023-05-03T16:19:21.342Z,1.02
2023-05-03T16:21:47.724Z,1.10
2023-05-03T16:24:14.385Z,1.73
2023-05-03T16:26:42.397Z,0.70
2023-05-03T16:29:10.064Z,0.80
2023-05-03T16:31:36.534Z,1.02
2023-05-03T16:34:02.975Z,0.90
2023-05-03T16:36:30.235Z,0.80
2023-05-03T16:38:56.639Z,1.52
2023-05-03T16:41:24.213Z,1.00
2023-05-03T16:43:50.821Z,0.90
2023-05-03T16:46:17.455Z,0.95
2023-05-03T16:48:43.831Z,0.82
2023-05-03T16:51:10.215Z,0.70
2023-05-03T16:53:36.687Z,1.03
2023-05-03T16:56:03.364Z,1.17
2023-05-03T16:58:29.704Z,0.90
2023-05-03T17:00:56.186Z,1.20
2023-05-03T17:03:22.955Z,1.20
2023-05-03T17:05:49.497Z,0.77
2023-05-03T17:08:15.875Z,0.88
2023-05-03T17:10:42.425Z,1.00
2023-05-03T17:13:09.396Z,1.00
2023-05-03T17:15:36.734Z,0.95
2023-05-03T17:18:04.853Z,1.43
2023-05-03T17:20:31.607Z,1.08
2023-05-03T17:22:58.451Z,1.58
2023-05-03T17:25:24.813Z,0.90
2023-05-03T17:27:52.678Z,1.00
2023-05-03T17:30:21.972Z,0.87
2023-05-03T17:32:48.654Z,1.10
2023-05-03T17:35:15.138Z,1.00
2023-05-03T17:37:41.535Z,1.17
2023-05-03T17:40:08.627Z,1.00
2023-05-03T17:42:35.380Z,0.23
2023-05-03T17:45:02.680Z,0.98
2023-05-03T17:47:29.398Z,1.02
2023-05-03T17:49:56.085Z,0.88
2023-05-03T17:52:22.552Z,1.13
2023-05-03T17:54:51.112Z,0.70
2023-05-03T17:57:17.917Z,1.05
2023-05-03T17:59:44.379Z,1.00
2023-05-03T18:02:10.849Z,0.20
2023-05-03T18:04:37.213Z,0.60
2023-05-03T18:07:03.515Z,0.77
2023-05-03T18:09:31.104Z,0.65
2023-05-03T18:11:59.824Z,1.05
2023-05-03T18:14:26.268Z,1.00
2023-05-03T18:16:55.097Z,1.17
2023-05-03T18:19:21.821Z,1.13
2023-05-03T18:21:48.187Z,0.90
2023-05-03T18:24:15.838Z,0.60
2023-05-03T18:26:42.264Z,0.73
2023-05-03T18:29:08.764Z,0.90
2023-05-03T18:31:35.134Z,0.90
2023-05-03T18:34:01.543Z,1.10
2023-05-03T18:36:27.962Z,0.80
2023-05-03T18:38:54.327Z,0.80
2023-05-03T18:41:20.943Z,0.60
2023-05-03T18:43:47.875Z,0.60
2023-05-03T18:46:20.661Z,0.70
2023-05-03T18:48:47.773Z,1.10
2023-05-03T18:51:14.299Z,0.93
2023-05-03T18:53:40.867Z,1.02
2023-05-03T18:56:07.299Z,0.80
2023-05-03T18:58:33.758Z,0.93
2023-05-03T19:01:00.705Z,1.15
2023-05-03T19:03:31.783Z,1.00
2023-05-03T19:06:07.166Z,1.08
2023-05-03T19:08:34.065Z,0.77
2023-05-03T19:11:08.179Z,1.10
2023-05-03T19:13:35.226Z,1.38
2023-05-03T19:16:02.380Z,1.40
2023-05-03T19:18:28.739Z,2.00
2023-05-03T19:20:56.522Z,2.30
2023-05-03T19:23:23.433Z,1.70
2023-05-03T19:25:49.767Z,1.52
2023-05-03T19:28:16.126Z,1.60
2023-05-03T19:30:45.462Z,1.88
2023-05-03T19:33:11.997Z,2.00
2023-05-03T19:35:39.755Z,1.30
2023-05-03T19:38:07.056Z,1.35
2023-05-03T19:40:33.734Z,1.73
2023-05-03T19:43:00.227Z,1.85
2023-05-03T19:45:26.599Z,1.80
2023-05-03T19:47:52.988Z,2.40
2023-05-03T19:50:19.374Z,3.53
2023-05-03T19:52:46.552Z,3.22
2023-05-03T19:55:12.991Z,2.55
2023-05-03T19:57:39.318Z,1.63
2023-05-03T20:00:07.104Z,1.80
2023-05-03T20:02:36.613Z,1.50
2023-05-03T20:05:04.992Z,1.17
2023-05-03T20:07:32.397Z,1.02
2023-05-03T20:09:58.745Z,0.97
2023-05-03T20:12:25.167Z,1.80
2023-05-03T20:14:51.632Z,1.35
2023-05-03T20:17:18.075Z,0.55
2023-05-03T20:19:44.569Z,1.05
2023-05-03T20:22:11.245Z,1.90
2023-05-03T20:24:37.706Z,1.33
2023-05-03T20:27:04.086Z,0.52
2023-05-03T20:29:30.431Z,0.70
2023-05-03T20:31:56.818Z,1.75
2023-05-03T20:34:23.174Z,0.90
2023-05-03T20:36:49.554Z,0.88
2023-05-03T20:39:15.889Z,1.58
2023-05-03T20:41:42.347Z,0.90
2023-05-03T20:44:08.837Z,1.08
2023-05-03T20:46:35.524Z,1.07
2023-05-03T20:49:02.234Z,1.70
2023-05-03T20:51:28.957Z,1.10
2023-05-03T20:53:55.978Z,1.50
2023-05-03T20:56:22.359Z,1.10
2023-05-03T20:58:48.726Z,1.30
2023-05-03T21:01:15.137Z,1.38
2023-05-03T21:03:41.557Z,1.20
2023-05-03T21:06:07.981Z,1.08
2023-05-03T21:08:34.944Z,1.10
2023-05-03T21:11:01.415Z,1.53
2023-05-03T21:13:27.949Z,1.85
2023-05-03T21:15:54.990Z,1.60
2023-05-03T21:18:21.331Z,1.00
2023-05-03T21:20:47.710Z,1.35
2023-05-03T21:23:14.087Z,0.97
2023-05-03T21:25:40.467Z,1.02
2023-05-03T21:28:06.874Z,1.40
2023-05-03T21:30:33.288Z,0.80
2023-05-03T21:32:59.642Z,0.73
2023-05-03T21:35:26.058Z,1.60
2023-05-03T21:37:52.435Z,1.52
2023-05-03T21:40:20.640Z,1.75
2023-05-03T21:42:49.187Z,1.70
2023-05-03T21:45:15.496Z,1.38
2023-05-03T21:47:42.156Z,1.30
2023-05-03T21:50:08.628Z,1.10
2023-05-03T21:52:36.794Z,1.52
2023-05-03T21:55:03.511Z,1.13
2023-05-03T21:57:31.797Z,1.58
2023-05-03T21:59:59.455Z,2.57
2023-05-03T22:02:26.081Z,1.30
2023-05-03T22:04:52.743Z,0.98
2023-05-03T22:07:19.112Z,1.50
2023-05-03T22:09:47.456Z,1.48
2023-05-03T22:12:23.423Z,1.43
2023-05-03T22:14:50.938Z,1.50
2023-05-03T22:17:17.424Z,1.27
2023-05-03T22:19:43.775Z,1.05
2023-05-03T22:22:10.404Z,2.13
2023-05-03T22:24:36.860Z,1.10
2023-05-03T22:27:03.668Z,1.65
2023-05-03T22:29:30.159Z,1.55
2023-05-03T22:31:57.052Z,1.58
2023-05-03T22:34:23.575Z,0.85
2023-05-03T22:36:50.029Z,1.87
2023-05-03T22:39:17.320Z,2.05
2023-05-03T22:41:44.495Z,2.08
2023-05-03T22:44:10.881Z,2.33
2023-05-03T22:46:37.335Z,2.28
2023-05-03T22:49:04.052Z,2.00
2023-05-03T22:51:31.673Z,2.13
2023-05-03T22:53:58.111Z,2.50
2023-05-03T22:56:24.514Z,1.52
2023-05-03T22:58:50.832Z,2.13
2023-05-03T23:01:17.356Z,2.50
2023-05-03T23:03:43.866Z,1.88
2023-05-03T23:06:10.730Z,2.28
2023-05-03T23:08:37.246Z,1.63
2023-05-03T23:11:03.729Z,1.50
2023-05-03T23:13:30.280Z,2.10
2023-05-03T23:15:56.999Z,2.47
2023-05-03T23:18:23.516Z,2.38
2023-05-03T23:20:49.843Z,3.03
2023-05-03T23:23:16.513Z,2.38
2023-05-03T23:25:43.152Z,2.23
2023-05-03T23:28:09.689Z,2.80
2023-05-03T23:30:36.905Z,3.45
2023-05-03T23:33:04.041Z,2.97
2023-05-03T23:35:31.039Z,2.90
2023-05-03T23:37:57.634Z,2.37
2023-05-03T23:40:24.096Z,2.05
2023-05-03T23:42:50.448Z,3.50
2023-05-03T23:45:16.951Z,1.20
2023-05-03T23:47:43.334Z,2.60
2023-05-03T23:50:10.384Z,3.27
2023-05-03T23:52:37.163Z,2.42
2023-05-03T23:55:07.108Z,2.00
2023-05-03T23:57:33.475Z,2.60
2023-05-03T23:59:59.873Z,0.73
